sensor_id;sensor_type;location;lat;lon;timestamp;P1;durP1;ratioP1;P2;durP2;ratioP2
61527;SDS011;47395;42.032;-8.634;2024-02-23T00:01:53;6.07;;;2.03;;
61527;SDS011;47395;42.032;-8.634;2024-02-23T00:03:53;10.07;;;2.65;;
61527;SDS011;47395;42.032;-8.634;2024-02-23T00:05:55;5.45;;;2.38;;
61527;SDS011;47395;42.032;-8.634;2024-02-23T00:07:56;6.50;;;2.50;;
61527;SDS011;47395;42.032;-8.634;2024-02-23T00:09:57;5.28;;;2.30;;
61527;SDS011;47395;42.032;-8.634;2024-02-23T00:11:58;9.48;;;3.00;;
61527;SDS011;47395;42.032;-8.634;2024-02-23T00:13:59;7.38;;;2.50;;
61527;SDS011;47395;42.032;-8.634;2024-02-23T00:16:00;6.85;;;2.10;;
61527;SDS011;47395;42.032;-8.634;2024-02-23T00:18:01;9.30;;;2.35;;
61527;SDS011;47395;42.032;-8.634;2024-02-23T00:20:04;8.40;;;2.55;;
61527;SDS011;47395;42.032;-8.634;2024-02-23T00:22:05;7.50;;;1.80;;
61527;SDS011;47395;42.032;-8.634;2024-02-23T00:24:06;6.10;;;2.00;;
61527;SDS011;47395;42.032;-8.634;2024-02-23T00:26:06;11.93;;;2.45;;
61527;SDS011;47395;42.032;-8.634;2024-02-23T00:28:08;7.22;;;2.25;;
61527;SDS011;47395;42.032;-8.634;2024-02-23T00:30:09;9.10;;;2.10;;
61527;SDS011;47395;42.032;-8.634;2024-02-23T00:32:10;4.82;;;1.65;;
61527;SDS011;47395;42.032;-8.634;2024-02-23T00:34:11;6.80;;;2.03;;
61527;SDS011;47395;42.032;-8.634;2024-02-23T00:36:13;5.78;;;1.90;;
61527;SDS011;47395;42.032;-8.634;2024-02-23T00:38:14;7.28;;;1.83;;
61527;SDS011;47395;42.032;-8.634;2024-02-23T00:40:15;7.82;;;2.28;;
61527;SDS011;47395;42.032;-8.634;2024-02-23T00:42:16;9.68;;;2.55;;
61527;SDS011;47395;42.032;-8.634;2024-02-23T00:44:17;8.43;;;2.20;;
61527;SDS011;47395;42.032;-8.634;2024-02-23T00:46:17;4.45;;;1.60;;
61527;SDS011;47395;42.032;-8.634;2024-02-23T00:48:19;5.35;;;1.77;;
61527;SDS011;47395;42.032;-8.634;2024-02-23T00:50:21;4.70;;;1.90;;
61527;SDS011;47395;42.032;-8.634;2024-02-23T00:52:24;8.20;;;1.75;;
61527;SDS011;47395;42.032;-8.634;2024-02-23T00:54:25;7.25;;;2.20;;
61527;SDS011;47395;42.032;-8.634;2024-02-23T00:56:28;12.10;;;2.05;;
61527;SDS011;47395;42.032;-8.634;2024-02-23T00:58:28;15.27;;;2.05;;
61527;SDS011;47395;42.032;-8.634;2024-02-23T01:00:29;6.15;;;2.17;;
61527;SDS011;47395;42.032;-8.634;2024-02-23T01:02:30;13.23;;;2.78;;
61527;SDS011;47395;42.032;-8.634;2024-02-23T01:04:30;6.43;;;1.90;;
61527;SDS011;47395;42.032;-8.634;2024-02-23T01:06:31;9.60;;;2.65;;
61527;SDS011;47395;42.032;-8.634;2024-02-23T01:08:32;12.57;;;2.15;;
61527;SDS011;47395;42.032;-8.634;2024-02-23T01:10:32;10.30;;;2.42;;
61527;SDS011;47395;42.032;-8.634;2024-02-23T01:12:35;6.35;;;2.03;;
61527;SDS011;47395;42.032;-8.634;2024-02-23T01:14:36;4.20;;;1.75;;
61527;SDS011;47395;42.032;-8.634;2024-02-23T01:16:36;8.57;;;1.88;;
61527;SDS011;47395;42.032;-8.634;2024-02-23T01:18:37;12.05;;;2.33;;
61527;SDS011;47395;42.032;-8.634;2024-02-23T01:20:38;13.00;;;2.33;;
61527;SDS011;47395;42.032;-8.634;2024-02-23T01:22:39;7.93;;;2.30;;
61527;SDS011;47395;42.032;-8.634;2024-02-23T01:24:39;12.70;;;2.03;;
61527;SDS011;47395;42.032;-8.634;2024-02-23T01:26:40;4.65;;;1.98;;
61527;SDS011;47395;42.032;-8.634;2024-02-23T01:28:41;6.68;;;1.60;;
61527;SDS011;47395;42.032;-8.634;2024-02-23T01:30:42;14.70;;;2.30;;
61527;SDS011;47395;42.032;-8.634;2024-02-23T01:32:43;10.55;;;2.83;;
61527;SDS011;47395;42.032;-8.634;2024-02-23T01:34:44;10.02;;;2.22;;
61527;SDS011;47395;42.032;-8.634;2024-02-23T01:36:44;7.03;;;2.30;;
61527;SDS011;47395;42.032;-8.634;2024-02-23T01:38:45;11.93;;;2.28;;
61527;SDS011;47395;42.032;-8.634;2024-02-23T01:40:47;6.18;;;2.17;;
61527;SDS011;47395;42.032;-8.634;2024-02-23T01:42:48;15.50;;;2.95;;
61527;SDS011;47395;42.032;-8.634;2024-02-23T01:44:48;8.93;;;2.50;;
61527;SDS011;47395;42.032;-8.634;2024-02-23T01:46:49;9.68;;;2.28;;
61527;SDS011;47395;42.032;-8.634;2024-02-23T01:48:51;15.70;;;2.80;;
61527;SDS011;47395;42.032;-8.634;2024-02-23T01:50:52;12.27;;;2.83;;
61527;SDS011;47395;42.032;-8.634;2024-02-23T01:52:56;11.93;;;2.35;;
61527;SDS011;47395;42.032;-8.634;2024-02-23T01:54:57;15.95;;;2.50;;
61527;SDS011;47395;42.032;-8.634;2024-02-23T01:56:58;8.07;;;2.10;;
61527;SDS011;47395;42.032;-8.634;2024-02-23T01:58:59;8.43;;;2.75;;
61527;SDS011;47395;42.032;-8.634;2024-02-23T02:01:05;9.90;;;2.63;;
61527;SDS011;47395;42.032;-8.634;2024-02-23T02:03:06;11.35;;;2.45;;
61527;SDS011;47395;42.032;-8.634;2024-02-23T02:05:08;8.18;;;1.92;;
61527;SDS011;47395;42.032;-8.634;2024-02-23T02:07:09;13.57;;;2.75;;
61527;SDS011;47395;42.032;-8.634;2024-02-23T02:09:10;16.05;;;3.20;;
61527;SDS011;47395;42.032;-8.634;2024-02-23T02:11:11;13.15;;;3.30;;
61527;SDS011;47395;42.032;-8.634;2024-02-23T02:13:12;12.05;;;3.10;;
61527;SDS011;47395;42.032;-8.634;2024-02-23T02:15:12;12.10;;;2.60;;
61527;SDS011;47395;42.032;-8.634;2024-02-23T02:17:13;11.02;;;2.63;;
61527;SDS011;47395;42.032;-8.634;2024-02-23T02:19:14;18.05;;;2.92;;
61527;SDS011;47395;42.032;-8.634;2024-02-23T02:21:14;20.08;;;3.22;;
61527;SDS011;47395;42.032;-8.634;2024-02-23T02:23:15;17.20;;;3.17;;
61527;SDS011;47395;42.032;-8.634;2024-02-23T02:25:16;19.15;;;2.55;;
61527;SDS011;47395;42.032;-8.634;2024-02-23T02:27:17;13.73;;;2.53;;
61527;SDS011;47395;42.032;-8.634;2024-02-23T02:29:18;10.02;;;3.00;;
61527;SDS011;47395;42.032;-8.634;2024-02-23T02:31:18;12.57;;;2.47;;
61527;SDS011;47395;42.032;-8.634;2024-02-23T02:33:19;10.95;;;2.58;;
61527;SDS011;47395;42.032;-8.634;2024-02-23T02:35:20;9.50;;;2.28;;
61527;SDS011;47395;42.032;-8.634;2024-02-23T02:37:21;9.70;;;2.72;;
61527;SDS011;47395;42.032;-8.634;2024-02-23T02:39:22;9.55;;;2.10;;
61527;SDS011;47395;42.032;-8.634;2024-02-23T02:41:23;11.80;;;2.35;;
61527;SDS011;47395;42.032;-8.634;2024-02-23T02:43:25;15.75;;;2.78;;
61527;SDS011;47395;42.032;-8.634;2024-02-23T02:45:26;15.27;;;3.03;;
61527;SDS011;47395;42.032;-8.634;2024-02-23T02:47:27;10.85;;;2.50;;
61527;SDS011;47395;42.032;-8.634;2024-02-23T02:49:28;14.07;;;3.22;;
61527;SDS011;47395;42.032;-8.634;2024-02-23T02:51:28;13.65;;;2.80;;
61527;SDS011;47395;42.032;-8.634;2024-02-23T02:53:30;9.90;;;2.53;;
61527;SDS011;47395;42.032;-8.634;2024-02-23T02:55:31;10.80;;;2.58;;
61527;SDS011;47395;42.032;-8.634;2024-02-23T02:57:35;11.07;;;2.53;;
61527;SDS011;47395;42.032;-8.634;2024-02-23T02:59:36;17.80;;;2.72;;
61527;SDS011;47395;42.032;-8.634;2024-02-23T03:01:39;15.63;;;3.10;;
61527;SDS011;47395;42.032;-8.634;2024-02-23T03:03:40;13.65;;;3.08;;
61527;SDS011;47395;42.032;-8.634;2024-02-23T03:05:47;18.08;;;3.42;;
61527;SDS011;47395;42.032;-8.634;2024-02-23T03:07:47;10.18;;;3.00;;
61527;SDS011;47395;42.032;-8.634;2024-02-23T03:09:48;15.38;;;3.03;;
61527;SDS011;47395;42.032;-8.634;2024-02-23T03:11:51;18.67;;;2.92;;
61527;SDS011;47395;42.032;-8.634;2024-02-23T03:13:52;17.15;;;3.15;;
61527;SDS011;47395;42.032;-8.634;2024-02-23T03:15:52;11.65;;;3.40;;
61527;SDS011;47395;42.032;-8.634;2024-02-23T03:17:53;16.10;;;3.33;;
61527;SDS011;47395;42.032;-8.634;2024-02-23T03:19:55;15.48;;;2.72;;
61527;SDS011;47395;42.032;-8.634;2024-02-23T03:21:56;18.83;;;2.88;;
61527;SDS011;47395;42.032;-8.634;2024-02-23T03:23:57;15.10;;;3.08;;
61527;SDS011;47395;42.032;-8.634;2024-02-23T03:25:57;14.35;;;2.88;;
61527;SDS011;47395;42.032;-8.634;2024-02-23T03:27:58;15.60;;;3.78;;
61527;SDS011;47395;42.032;-8.634;2024-02-23T03:29:59;21.05;;;3.55;;
61527;SDS011;47395;42.032;-8.634;2024-02-23T03:32:00;11.35;;;2.95;;
61527;SDS011;47395;42.032;-8.634;2024-02-23T03:34:02;17.77;;;2.63;;
61527;SDS011;47395;42.032;-8.634;2024-02-23T03:36:03;20.38;;;3.35;;
61527;SDS011;47395;42.032;-8.634;2024-02-23T03:38:03;18.10;;;3.10;;
61527;SDS011;47395;42.032;-8.634;2024-02-23T03:40:05;13.55;;;3.10;;
61527;SDS011;47395;42.032;-8.634;2024-02-23T03:42:07;18.10;;;2.90;;
61527;SDS011;47395;42.032;-8.634;2024-02-23T03:44:08;14.60;;;3.40;;
61527;SDS011;47395;42.032;-8.634;2024-02-23T03:46:08;15.55;;;3.92;;
61527;SDS011;47395;42.032;-8.634;2024-02-23T03:48:09;18.05;;;3.33;;
61527;SDS011;47395;42.032;-8.634;2024-02-23T03:50:10;17.38;;;3.45;;
61527;SDS011;47395;42.032;-8.634;2024-02-23T03:52:10;16.65;;;3.63;;
61527;SDS011;47395;42.032;-8.634;2024-02-23T03:54:11;14.98;;;3.08;;
61527;SDS011;47395;42.032;-8.634;2024-02-23T03:56:12;14.00;;;3.13;;
61527;SDS011;47395;42.032;-8.634;2024-02-23T03:58:13;11.50;;;2.95;;
61527;SDS011;47395;42.032;-8.634;2024-02-23T04:00:14;19.13;;;3.05;;
61527;SDS011;47395;42.032;-8.634;2024-02-23T04:02:15;14.05;;;3.10;;
61527;SDS011;47395;42.032;-8.634;2024-02-23T04:04:17;8.45;;;2.55;;
61527;SDS011;47395;42.032;-8.634;2024-02-23T04:06:19;9.50;;;2.30;;
61527;SDS011;47395;42.032;-8.634;2024-02-23T04:08:19;18.45;;;2.65;;
61527;SDS011;47395;42.032;-8.634;2024-02-23T04:10:20;11.52;;;2.30;;
61527;SDS011;47395;42.032;-8.634;2024-02-23T04:12:21;13.20;;;3.30;;
61527;SDS011;47395;42.032;-8.634;2024-02-23T04:14:22;11.73;;;2.63;;
61527;SDS011;47395;42.032;-8.634;2024-02-23T04:16:24;8.75;;;1.80;;
61527;SDS011;47395;42.032;-8.634;2024-02-23T04:18:27;15.48;;;2.45;;
61527;SDS011;47395;42.032;-8.634;2024-02-23T04:20:27;13.50;;;2.55;;
61527;SDS011;47395;42.032;-8.634;2024-02-23T04:22:28;15.63;;;3.08;;
61527;SDS011;47395;42.032;-8.634;2024-02-23T04:24:29;14.50;;;3.03;;
61527;SDS011;47395;42.032;-8.634;2024-02-23T04:26:29;10.27;;;2.35;;
61527;SDS011;47395;42.032;-8.634;2024-02-23T04:28:30;11.75;;;2.67;;
61527;SDS011;47395;42.032;-8.634;2024-02-23T04:30:33;20.02;;;3.00;;
61527;SDS011;47395;42.032;-8.634;2024-02-23T04:32:33;18.17;;;2.90;;
61527;SDS011;47395;42.032;-8.634;2024-02-23T04:34:34;12.70;;;2.92;;
61527;SDS011;47395;42.032;-8.634;2024-02-23T04:36:35;9.00;;;2.13;;
61527;SDS011;47395;42.032;-8.634;2024-02-23T04:38:36;14.48;;;2.30;;
61527;SDS011;47395;42.032;-8.634;2024-02-23T04:40:36;16.90;;;2.90;;
61527;SDS011;47395;42.032;-8.634;2024-02-23T04:42:37;16.20;;;3.03;;
61527;SDS011;47395;42.032;-8.634;2024-02-23T04:44:42;17.63;;;3.08;;
61527;SDS011;47395;42.032;-8.634;2024-02-23T04:46:43;11.27;;;3.50;;
61527;SDS011;47395;42.032;-8.634;2024-02-23T04:48:44;10.65;;;2.72;;
61527;SDS011;47395;42.032;-8.634;2024-02-23T04:50:44;14.32;;;2.47;;
61527;SDS011;47395;42.032;-8.634;2024-02-23T04:52:45;19.58;;;3.10;;
61527;SDS011;47395;42.032;-8.634;2024-02-23T04:54:46;23.83;;;3.50;;
61527;SDS011;47395;42.032;-8.634;2024-02-23T04:56:47;13.73;;;3.25;;
61527;SDS011;47395;42.032;-8.634;2024-02-23T04:58:48;11.82;;;3.00;;
61527;SDS011;47395;42.032;-8.634;2024-02-23T05:00:48;13.80;;;3.30;;
61527;SDS011;47395;42.032;-8.634;2024-02-23T05:02:50;11.23;;;2.92;;
61527;SDS011;47395;42.032;-8.634;2024-02-23T05:05:02;15.50;;;2.88;;
61527;SDS011;47395;42.032;-8.634;2024-02-23T05:07:07;16.75;;;4.05;;
61527;SDS011;47395;42.032;-8.634;2024-02-23T05:09:08;14.25;;;3.30;;
61527;SDS011;47395;42.032;-8.634;2024-02-23T05:11:09;12.35;;;3.00;;
61527;SDS011;47395;42.032;-8.634;2024-02-23T05:13:11;11.15;;;3.55;;
61527;SDS011;47395;42.032;-8.634;2024-02-23T05:15:12;12.52;;;2.72;;
61527;SDS011;47395;42.032;-8.634;2024-02-23T05:17:13;7.43;;;2.15;;
61527;SDS011;47395;42.032;-8.634;2024-02-23T05:19:14;9.35;;;2.88;;
61527;SDS011;47395;42.032;-8.634;2024-02-23T05:21:14;11.27;;;2.58;;
61527;SDS011;47395;42.032;-8.634;2024-02-23T05:23:16;11.50;;;2.33;;
61527;SDS011;47395;42.032;-8.634;2024-02-23T05:25:17;9.88;;;2.58;;
61527;SDS011;47395;42.032;-8.634;2024-02-23T05:27:18;16.48;;;3.83;;
61527;SDS011;47395;42.032;-8.634;2024-02-23T05:29:19;13.73;;;2.65;;
61527;SDS011;47395;42.032;-8.634;2024-02-23T05:31:25;6.72;;;2.20;;
61527;SDS011;47395;42.032;-8.634;2024-02-23T05:33:43;13.93;;;3.25;;
61527;SDS011;47395;42.032;-8.634;2024-02-23T05:35:43;14.85;;;3.42;;
61527;SDS011;47395;42.032;-8.634;2024-02-23T05:37:45;12.38;;;2.90;;
61527;SDS011;47395;42.032;-8.634;2024-02-23T05:39:46;9.70;;;2.67;;
61527;SDS011;47395;42.032;-8.634;2024-02-23T05:41:47;10.38;;;2.53;;
61527;SDS011;47395;42.032;-8.634;2024-02-23T05:43:48;9.38;;;2.22;;
61527;SDS011;47395;42.032;-8.634;2024-02-23T05:45:49;11.32;;;2.35;;
61527;SDS011;47395;42.032;-8.634;2024-02-23T05:47:50;12.40;;;2.22;;
61527;SDS011;47395;42.032;-8.634;2024-02-23T05:49:51;16.45;;;2.75;;
61527;SDS011;47395;42.032;-8.634;2024-02-23T05:51:52;16.08;;;2.60;;
61527;SDS011;47395;42.032;-8.634;2024-02-23T05:53:52;15.25;;;2.45;;
61527;SDS011;47395;42.032;-8.634;2024-02-23T05:55:53;9.82;;;2.42;;
61527;SDS011;47395;42.032;-8.634;2024-02-23T05:57:54;14.35;;;2.58;;
61527;SDS011;47395;42.032;-8.634;2024-02-23T05:59:56;9.40;;;2.92;;
61527;SDS011;47395;42.032;-8.634;2024-02-23T06:01:57;16.42;;;2.75;;
61527;SDS011;47395;42.032;-8.634;2024-02-23T06:03:58;10.10;;;2.67;;
61527;SDS011;47395;42.032;-8.634;2024-02-23T06:05:59;11.07;;;2.40;;
61527;SDS011;47395;42.032;-8.634;2024-02-23T06:08:00;14.80;;;2.80;;
61527;SDS011;47395;42.032;-8.634;2024-02-23T06:10:01;13.13;;;3.17;;
61527;SDS011;47395;42.032;-8.634;2024-02-23T06:12:02;15.30;;;2.83;;
61527;SDS011;47395;42.032;-8.634;2024-02-23T06:14:04;9.20;;;2.67;;
61527;SDS011;47395;42.032;-8.634;2024-02-23T06:16:05;12.85;;;2.35;;
61527;SDS011;47395;42.032;-8.634;2024-02-23T06:18:06;7.57;;;2.10;;
61527;SDS011;47395;42.032;-8.634;2024-02-23T06:20:08;4.70;;;1.50;;
61527;SDS011;47395;42.032;-8.634;2024-02-23T06:22:08;7.85;;;1.88;;
61527;SDS011;47395;42.032;-8.634;2024-02-23T06:24:11;10.13;;;1.80;;
61527;SDS011;47395;42.032;-8.634;2024-02-23T06:26:12;3.78;;;2.08;;
61527;SDS011;47395;42.032;-8.634;2024-02-23T06:28:13;3.70;;;1.45;;
61527;SDS011;47395;42.032;-8.634;2024-02-23T06:30:13;4.18;;;1.60;;
61527;SDS011;47395;42.032;-8.634;2024-02-23T06:32:14;9.70;;;1.63;;
61527;SDS011;47395;42.032;-8.634;2024-02-23T06:34:16;8.35;;;1.80;;
61527;SDS011;47395;42.032;-8.634;2024-02-23T06:36:17;5.50;;;1.98;;
61527;SDS011;47395;42.032;-8.634;2024-02-23T06:38:18;11.18;;;2.33;;
61527;SDS011;47395;42.032;-8.634;2024-02-23T06:40:19;9.15;;;2.05;;
61527;SDS011;47395;42.032;-8.634;2024-02-23T06:42:20;8.95;;;2.20;;
61527;SDS011;47395;42.032;-8.634;2024-02-23T06:44:22;7.25;;;2.63;;
61527;SDS011;47395;42.032;-8.634;2024-02-23T06:46:23;14.52;;;2.20;;
61527;SDS011;47395;42.032;-8.634;2024-02-23T06:48:26;7.85;;;2.13;;
61527;SDS011;47395;42.032;-8.634;2024-02-23T06:50:27;9.93;;;2.60;;
61527;SDS011;47395;42.032;-8.634;2024-02-23T06:52:29;7.55;;;3.15;;
61527;SDS011;47395;42.032;-8.634;2024-02-23T06:54:29;12.30;;;3.08;;
61527;SDS011;47395;42.032;-8.634;2024-02-23T06:56:30;8.27;;;2.80;;
61527;SDS011;47395;42.032;-8.634;2024-02-23T06:58:31;4.93;;;2.72;;
61527;SDS011;47395;42.032;-8.634;2024-02-23T07:00:32;4.90;;;2.00;;
61527;SDS011;47395;42.032;-8.634;2024-02-23T07:02:33;3.78;;;2.08;;
61527;SDS011;47395;42.032;-8.634;2024-02-23T07:04:36;7.15;;;2.08;;
61527;SDS011;47395;42.032;-8.634;2024-02-23T07:06:37;8.98;;;2.20;;
61527;SDS011;47395;42.032;-8.634;2024-02-23T07:08:39;10.90;;;3.47;;
61527;SDS011;47395;42.032;-8.634;2024-02-23T07:10:39;11.68;;;4.93;;
61527;SDS011;47395;42.032;-8.634;2024-02-23T07:12:40;7.72;;;5.05;;
61527;SDS011;47395;42.032;-8.634;2024-02-23T07:14:41;10.88;;;5.43;;
61527;SDS011;47395;42.032;-8.634;2024-02-23T07:16:42;10.00;;;2.90;;
61527;SDS011;47395;42.032;-8.634;2024-02-23T07:18:43;13.80;;;2.88;;
61527;SDS011;47395;42.032;-8.634;2024-02-23T07:20:46;10.48;;;2.90;;
61527;SDS011;47395;42.032;-8.634;2024-02-23T07:22:46;6.18;;;2.03;;
61527;SDS011;47395;42.032;-8.634;2024-02-23T07:24:47;9.05;;;2.92;;
61527;SDS011;47395;42.032;-8.634;2024-02-23T07:26:49;13.38;;;2.60;;
61527;SDS011;47395;42.032;-8.634;2024-02-23T07:28:50;11.73;;;2.85;;
61527;SDS011;47395;42.032;-8.634;2024-02-23T07:30:52;13.55;;;2.72;;
61527;SDS011;47395;42.032;-8.634;2024-02-23T07:32:53;13.63;;;3.28;;
61527;SDS011;47395;42.032;-8.634;2024-02-23T07:34:54;19.40;;;3.15;;
61527;SDS011;47395;42.032;-8.634;2024-02-23T07:36:55;13.45;;;3.33;;
61527;SDS011;47395;42.032;-8.634;2024-02-23T07:38:56;15.60;;;3.45;;
61527;SDS011;47395;42.032;-8.634;2024-02-23T07:40:56;17.50;;;4.05;;
61527;SDS011;47395;42.032;-8.634;2024-02-23T07:42:58;13.60;;;3.53;;
61527;SDS011;47395;42.032;-8.634;2024-02-23T07:44:59;16.60;;;3.08;;
61527;SDS011;47395;42.032;-8.634;2024-02-23T07:47:00;12.55;;;2.97;;
61527;SDS011;47395;42.032;-8.634;2024-02-23T07:49:04;19.48;;;3.78;;
61527;SDS011;47395;42.032;-8.634;2024-02-23T07:51:05;23.35;;;3.40;;
61527;SDS011;47395;42.032;-8.634;2024-02-23T07:53:06;22.90;;;4.68;;
61527;SDS011;47395;42.032;-8.634;2024-02-23T07:55:07;13.60;;;3.13;;
61527;SDS011;47395;42.032;-8.634;2024-02-23T07:57:08;19.38;;;3.55;;
61527;SDS011;47395;42.032;-8.634;2024-02-23T07:59:09;16.35;;;2.80;;
61527;SDS011;47395;42.032;-8.634;2024-02-23T08:01:11;24.33;;;2.80;;
61527;SDS011;47395;42.032;-8.634;2024-02-23T08:03:12;13.20;;;3.63;;
61527;SDS011;47395;42.032;-8.634;2024-02-23T08:05:14;17.50;;;3.63;;
61527;SDS011;47395;42.032;-8.634;2024-02-23T08:07:15;29.42;;;4.53;;
61527;SDS011;47395;42.032;-8.634;2024-02-23T08:09:16;20.38;;;3.95;;
61527;SDS011;47395;42.032;-8.634;2024-02-23T08:11:18;15.60;;;3.40;;
61527;SDS011;47395;42.032;-8.634;2024-02-23T08:13:19;18.48;;;4.07;;
61527;SDS011;47395;42.032;-8.634;2024-02-23T08:15:21;19.17;;;3.50;;
61527;SDS011;47395;42.032;-8.634;2024-02-23T08:17:22;19.00;;;3.50;;
61527;SDS011;47395;42.032;-8.634;2024-02-23T08:19:23;17.35;;;3.42;;
61527;SDS011;47395;42.032;-8.634;2024-02-23T08:21:24;18.67;;;3.10;;
61527;SDS011;47395;42.032;-8.634;2024-02-23T08:23:26;23.80;;;4.30;;
61527;SDS011;47395;42.032;-8.634;2024-02-23T08:25:27;28.20;;;4.30;;
61527;SDS011;47395;42.032;-8.634;2024-02-23T08:27:29;16.60;;;3.47;;
61527;SDS011;47395;42.032;-8.634;2024-02-23T08:29:31;23.80;;;4.40;;
61527;SDS011;47395;42.032;-8.634;2024-02-23T08:31:32;20.17;;;4.25;;
61527;SDS011;47395;42.032;-8.634;2024-02-23T08:33:33;22.52;;;4.70;;
61527;SDS011;47395;42.032;-8.634;2024-02-23T08:35:34;16.92;;;3.65;;
61527;SDS011;47395;42.032;-8.634;2024-02-23T08:37:36;13.88;;;3.28;;
61527;SDS011;47395;42.032;-8.634;2024-02-23T08:39:37;20.67;;;3.75;;
61527;SDS011;47395;42.032;-8.634;2024-02-23T08:41:37;20.23;;;3.50;;
61527;SDS011;47395;42.032;-8.634;2024-02-23T08:43:41;22.08;;;3.95;;
61527;SDS011;47395;42.032;-8.634;2024-02-23T08:45:42;18.10;;;4.32;;
61527;SDS011;47395;42.032;-8.634;2024-02-23T08:47:44;22.77;;;5.15;;
61527;SDS011;47395;42.032;-8.634;2024-02-23T08:49:45;14.15;;;3.50;;
61527;SDS011;47395;42.032;-8.634;2024-02-23T08:51:49;14.68;;;3.78;;
61527;SDS011;47395;42.032;-8.634;2024-02-23T08:53:51;15.30;;;3.75;;
61527;SDS011;47395;42.032;-8.634;2024-02-23T08:55:52;16.05;;;3.92;;
61527;SDS011;47395;42.032;-8.634;2024-02-23T08:57:52;13.25;;;3.35;;
61527;SDS011;47395;42.032;-8.634;2024-02-23T08:59:53;13.70;;;2.60;;
61527;SDS011;47395;42.032;-8.634;2024-02-23T09:01:54;22.67;;;3.78;;
61527;SDS011;47395;42.032;-8.634;2024-02-23T09:03:55;17.02;;;2.95;;
61527;SDS011;47395;42.032;-8.634;2024-02-23T09:05:56;22.27;;;5.47;;
61527;SDS011;47395;42.032;-8.634;2024-02-23T09:07:57;20.10;;;4.70;;
61527;SDS011;47395;42.032;-8.634;2024-02-23T09:09:58;13.75;;;3.53;;
61527;SDS011;47395;42.032;-8.634;2024-02-23T09:11:58;22.80;;;4.80;;
61527;SDS011;47395;42.032;-8.634;2024-02-23T09:14:00;15.25;;;4.10;;
61527;SDS011;47395;42.032;-8.634;2024-02-23T09:16:01;22.20;;;6.45;;
61527;SDS011;47395;42.032;-8.634;2024-02-23T09:18:01;13.07;;;3.42;;
61527;SDS011;47395;42.032;-8.634;2024-02-23T09:20:02;17.95;;;3.63;;
61527;SDS011;47395;42.032;-8.634;2024-02-23T09:22:03;13.35;;;2.60;;
61527;SDS011;47395;42.032;-8.634;2024-02-23T09:24:04;11.93;;;2.60;;
61527;SDS011;47395;42.032;-8.634;2024-02-23T09:26:09;16.85;;;3.17;;
61527;SDS011;47395;42.032;-8.634;2024-02-23T09:28:11;16.40;;;2.90;;
61527;SDS011;47395;42.032;-8.634;2024-02-23T09:30:13;14.30;;;2.97;;
61527;SDS011;47395;42.032;-8.634;2024-02-23T09:32:14;14.88;;;3.20;;
61527;SDS011;47395;42.032;-8.634;2024-02-23T09:34:14;13.65;;;3.83;;
61527;SDS011;47395;42.032;-8.634;2024-02-23T09:36:16;13.38;;;4.00;;
61527;SDS011;47395;42.032;-8.634;2024-02-23T09:38:17;17.33;;;4.38;;
61527;SDS011;47395;42.032;-8.634;2024-02-23T09:40:19;13.10;;;4.22;;
61527;SDS011;47395;42.032;-8.634;2024-02-23T09:42:21;16.02;;;5.15;;
61527;SDS011;47395;42.032;-8.634;2024-02-23T09:44:24;13.25;;;5.40;;
61527;SDS011;47395;42.032;-8.634;2024-02-23T09:46:29;16.45;;;4.05;;
61527;SDS011;47395;42.032;-8.634;2024-02-23T09:48:33;14.65;;;3.63;;
61527;SDS011;47395;42.032;-8.634;2024-02-23T09:50:35;16.42;;;3.67;;
61527;SDS011;47395;42.032;-8.634;2024-02-23T09:52:38;16.52;;;4.00;;
61527;SDS011;47395;42.032;-8.634;2024-02-23T09:54:39;16.25;;;3.47;;
61527;SDS011;47395;42.032;-8.634;2024-02-23T09:56:40;11.38;;;3.38;;
61527;SDS011;47395;42.032;-8.634;2024-02-23T09:58:41;17.77;;;4.03;;
61527;SDS011;47395;42.032;-8.634;2024-02-23T10:00:47;12.82;;;3.92;;
61527;SDS011;47395;42.032;-8.634;2024-02-23T10:02:51;16.35;;;4.30;;
61527;SDS011;47395;42.032;-8.634;2024-02-23T10:04:53;19.08;;;4.40;;
61527;SDS011;47395;42.032;-8.634;2024-02-23T10:06:56;17.73;;;6.15;;
61527;SDS011;47395;42.032;-8.634;2024-02-23T10:08:56;15.32;;;4.97;;
61527;SDS011;47395;42.032;-8.634;2024-02-23T10:10:57;19.33;;;5.97;;
61527;SDS011;47395;42.032;-8.634;2024-02-23T10:13:01;22.92;;;5.28;;
61527;SDS011;47395;42.032;-8.634;2024-02-23T10:15:02;16.95;;;4.40;;
61527;SDS011;47395;42.032;-8.634;2024-02-23T10:17:05;16.40;;;4.70;;
61527;SDS011;47395;42.032;-8.634;2024-02-23T10:19:06;11.18;;;3.90;;
61527;SDS011;47395;42.032;-8.634;2024-02-23T10:21:10;10.05;;;3.20;;
61527;SDS011;47395;42.032;-8.634;2024-02-23T10:23:12;9.23;;;2.78;;
61527;SDS011;47395;42.032;-8.634;2024-02-23T10:25:13;4.10;;;2.42;;
61527;SDS011;47395;42.032;-8.634;2024-02-23T10:27:14;9.15;;;2.35;;
61527;SDS011;47395;42.032;-8.634;2024-02-23T10:29:15;6.00;;;2.35;;
61527;SDS011;47395;42.032;-8.634;2024-02-23T10:31:15;5.53;;;1.88;;
61527;SDS011;47395;42.032;-8.634;2024-02-23T10:33:18;6.97;;;2.40;;
61527;SDS011;47395;42.032;-8.634;2024-02-23T10:35:19;7.75;;;3.20;;
61527;SDS011;47395;42.032;-8.634;2024-02-23T10:37:22;6.05;;;3.35;;
61527;SDS011;47395;42.032;-8.634;2024-02-23T10:39:23;3.40;;;2.10;;
61527;SDS011;47395;42.032;-8.634;2024-02-23T10:41:24;4.57;;;2.17;;
61527;SDS011;47395;42.032;-8.634;2024-02-23T10:43:28;4.88;;;2.33;;
61527;SDS011;47395;42.032;-8.634;2024-02-23T10:45:30;3.85;;;1.90;;
61527;SDS011;47395;42.032;-8.634;2024-02-23T10:47:32;2.00;;;1.55;;
61527;SDS011;47395;42.032;-8.634;2024-02-23T10:49:35;3.60;;;1.80;;
61527;SDS011;47395;42.032;-8.634;2024-02-23T10:51:38;4.97;;;1.73;;
61527;SDS011;47395;42.032;-8.634;2024-02-23T10:53:40;6.45;;;2.00;;
61527;SDS011;47395;42.032;-8.634;2024-02-23T10:55:41;3.75;;;1.67;;
61527;SDS011;47395;42.032;-8.634;2024-02-23T10:57:45;4.80;;;2.50;;
61527;SDS011;47395;42.032;-8.634;2024-02-23T10:59:48;4.22;;;2.03;;
61527;SDS011;47395;42.032;-8.634;2024-02-23T11:01:49;5.75;;;2.10;;
61527;SDS011;47395;42.032;-8.634;2024-02-23T11:03:51;9.10;;;2.40;;
61527;SDS011;47395;42.032;-8.634;2024-02-23T11:05:53;6.63;;;2.20;;
61527;SDS011;47395;42.032;-8.634;2024-02-23T11:07:56;9.63;;;2.72;;
61527;SDS011;47395;42.032;-8.634;2024-02-23T11:09:59;11.98;;;3.17;;
61527;SDS011;47395;42.032;-8.634;2024-02-23T11:12:03;10.80;;;2.67;;
61527;SDS011;47395;42.032;-8.634;2024-02-23T11:14:08;10.90;;;3.30;;
61527;SDS011;47395;42.032;-8.634;2024-02-23T11:16:21;11.93;;;3.10;;
61527;SDS011;47395;42.032;-8.634;2024-02-23T11:18:22;9.40;;;2.50;;
61527;SDS011;47395;42.032;-8.634;2024-02-23T11:20:34;5.53;;;2.60;;
61527;SDS011;47395;42.032;-8.634;2024-02-23T11:22:34;12.05;;;3.28;;
61527;SDS011;47395;42.032;-8.634;2024-02-23T11:24:45;12.32;;;2.85;;
61527;SDS011;47395;42.032;-8.634;2024-02-23T11:26:49;14.52;;;4.47;;
61527;SDS011;47395;42.032;-8.634;2024-02-23T11:28:53;14.80;;;3.42;;
61527;SDS011;47395;42.032;-8.634;2024-02-23T11:30:55;21.02;;;4.35;;
61527;SDS011;47395;42.032;-8.634;2024-02-23T11:32:58;8.80;;;2.63;;
61527;SDS011;47395;42.032;-8.634;2024-02-23T11:35:01;21.45;;;4.63;;
61527;SDS011;47395;42.032;-8.634;2024-02-23T11:37:07;26.33;;;4.70;;
61527;SDS011;47395;42.032;-8.634;2024-02-23T11:39:09;18.33;;;4.60;;
61527;SDS011;47395;42.032;-8.634;2024-02-23T11:41:11;18.42;;;4.75;;
61527;SDS011;47395;42.032;-8.634;2024-02-23T11:43:12;25.88;;;4.82;;
61527;SDS011;47395;42.032;-8.634;2024-02-23T11:45:12;24.35;;;4.90;;
61527;SDS011;47395;42.032;-8.634;2024-02-23T11:47:13;17.67;;;3.03;;
61527;SDS011;47395;42.032;-8.634;2024-02-23T11:49:14;19.17;;;3.92;;
61527;SDS011;47395;42.032;-8.634;2024-02-23T11:51:21;11.48;;;3.10;;
61527;SDS011;47395;42.032;-8.634;2024-02-23T11:53:23;22.95;;;3.22;;
61527;SDS011;47395;42.032;-8.634;2024-02-23T11:55:26;11.77;;;3.42;;